sensor_id;sensor_type;location;lat;lon;timestamp;temperature;humidity
71177;DHT22;58877;51.992;4.504;2022-08-21T00:01:06;19.16;74.05
71177;DHT22;58877;51.992;4.504;2022-08-21T00:03:35;19.10;74.22
71177;DHT22;58877;51.992;4.504;2022-08-21T00:06:02;19.03;74.24
71177;DHT22;58877;51.992;4.504;2022-08-21T00:08:28;19.09;74.23
71177;DHT22;58877;51.992;4.504;2022-08-21T00:11:00;19.02;74.32
71177;DHT22;58877;51.992;4.504;2022-08-21T00:13:26;18.99;74.58
71177;DHT22;58877;51.992;4.504;2022-08-21T00:15:53;18.96;74.77
71177;DHT22;58877;51.992;4.504;2022-08-21T00:18:19;18.93;74.81
71177;DHT22;58877;51.992;4.504;2022-08-21T00:20:46;18.92;75.21
71177;DHT22;58877;51.992;4.504;2022-08-21T00:23:12;18.93;75.26
71177;DHT22;58877;51.992;4.504;2022-08-21T00:25:39;18.99;75.14
71177;DHT22;58877;51.992;4.504;2022-08-21T00:28:05;18.95;75.20
71177;DHT22;58877;51.992;4.504;2022-08-21T00:30:32;18.89;75.39
71177;DHT22;58877;51.992;4.504;2022-08-21T00:32:59;18.82;75.59
71177;DHT22;58877;51.992;4.504;2022-08-21T00:35:30;18.77;75.64
71177;DHT22;58877;51.992;4.504;2022-08-21T00:37:58;18.76;75.81
71177;DHT22;58877;51.992;4.504;2022-08-21T00:40:46;18.73;75.95
71177;DHT22;58877;51.992;4.504;2022-08-21T00:43:15;18.75;75.77
71177;DHT22;58877;51.992;4.504;2022-08-21T00:45:42;18.73;75.76
71177;DHT22;58877;51.992;4.504;2022-08-21T00:48:07;18.65;75.75
71177;DHT22;58877;51.992;4.504;2022-08-21T00:50:39;18.59;75.83
71177;DHT22;58877;51.992;4.504;2022-08-21T00:53:10;18.68;75.55
71177;DHT22;58877;51.992;4.504;2022-08-21T00:55:39;18.63;75.56
71177;DHT22;58877;51.992;4.504;2022-08-21T00:58:08;18.53;75.67
71177;DHT22;58877;51.992;4.504;2022-08-21T01:00:39;18.47;75.53
71177;DHT22;58877;51.992;4.504;2022-08-21T01:03:10;18.47;75.57
71177;DHT22;58877;51.992;4.504;2022-08-21T01:05:37;18.48;75.72
71177;DHT22;58877;51.992;4.504;2022-08-21T01:08:04;18.44;75.80
71177;DHT22;58877;51.992;4.504;2022-08-21T01:10:31;18.35;75.82
71177;DHT22;58877;51.992;4.504;2022-08-21T01:13:00;18.38;75.98
71177;DHT22;58877;51.992;4.504;2022-08-21T01:15:32;18.31;75.97
71177;DHT22;58877;51.992;4.504;2022-08-21T01:17:59;18.25;76.05
71177;DHT22;58877;51.992;4.504;2022-08-21T01:20:25;18.27;76.18
71177;DHT22;58877;51.992;4.504;2022-08-21T01:22:54;18.27;76.02
71177;DHT22;58877;51.992;4.504;2022-08-21T01:25:20;18.25;76.06
71177;DHT22;58877;51.992;4.504;2022-08-21T01:27:45;18.24;76.00
71177;DHT22;58877;51.992;4.504;2022-08-21T01:30:16;18.19;76.22
71177;DHT22;58877;51.992;4.504;2022-08-21T01:32:44;18.12;76.22
71177;DHT22;58877;51.992;4.504;2022-08-21T01:35:11;18.04;76.40
71177;DHT22;58877;51.992;4.504;2022-08-21T01:37:37;18.04;76.37
71177;DHT22;58877;51.992;4.504;2022-08-21T01:40:05;18.00;76.39
71177;DHT22;58877;51.992;4.504;2022-08-21T01:42:31;17.97;76.43
71177;DHT22;58877;51.992;4.504;2022-08-21T01:44:57;17.97;76.45
71177;DHT22;58877;51.992;4.504;2022-08-21T01:47:22;17.90;76.50
71177;DHT22;58877;51.992;4.504;2022-08-21T01:49:48;17.90;76.66
71177;DHT22;58877;51.992;4.504;2022-08-21T01:52:14;17.85;76.54
71177;DHT22;58877;51.992;4.504;2022-08-21T01:54:41;17.84;76.54
71177;DHT22;58877;51.992;4.504;2022-08-21T01:57:07;17.78;76.66
71177;DHT22;58877;51.992;4.504;2022-08-21T01:59:35;17.74;76.69
71177;DHT22;58877;51.992;4.504;2022-08-21T02:02:04;17.73;76.99
71177;DHT22;58877;51.992;4.504;2022-08-21T02:04:31;17.70;77.02
71177;DHT22;58877;51.992;4.504;2022-08-21T02:06:59;17.63;77.05
71177;DHT22;58877;51.992;4.504;2022-08-21T02:09:25;17.59;77.15
71177;DHT22;58877;51.992;4.504;2022-08-21T02:11:50;17.57;77.20
71177;DHT22;58877;51.992;4.504;2022-08-21T02:14:16;17.59;77.43
71177;DHT22;58877;51.992;4.504;2022-08-21T02:16:44;17.60;77.62
71177;DHT22;58877;51.992;4.504;2022-08-21T02:19:13;17.62;77.61
71177;DHT22;58877;51.992;4.504;2022-08-21T02:21:42;17.63;77.56
71177;DHT22;58877;51.992;4.504;2022-08-21T02:24:09;17.64;77.69
71177;DHT22;58877;51.992;4.504;2022-08-21T02:26:34;17.62;77.75
71177;DHT22;58877;51.992;4.504;2022-08-21T02:29:00;17.59;77.85
71177;DHT22;58877;51.992;4.504;2022-08-21T02:31:25;17.57;78.04
71177;DHT22;58877;51.992;4.504;2022-08-21T02:33:52;17.60;78.04
71177;DHT22;58877;51.992;4.504;2022-08-21T02:36:18;17.59;78.02
71177;DHT22;58877;51.992;4.504;2022-08-21T02:38:44;17.63;78.01
71177;DHT22;58877;51.992;4.504;2022-08-21T02:41:13;17.63;77.94
71177;DHT22;58877;51.992;4.504;2022-08-21T02:43:44;17.66;77.99
71177;DHT22;58877;51.992;4.504;2022-08-21T02:46:15;17.70;77.93
71177;DHT22;58877;51.992;4.504;2022-08-21T02:48:42;17.69;77.79
71177;DHT22;58877;51.992;4.504;2022-08-21T02:51:14;17.73;77.82
71177;DHT22;58877;51.992;4.504;2022-08-21T02:53:44;17.71;77.81
71177;DHT22;58877;51.992;4.504;2022-08-21T02:56:13;17.70;77.93
71177;DHT22;58877;51.992;4.504;2022-08-21T02:58:43;17.71;78.02
71177;DHT22;58877;51.992;4.504;2022-08-21T03:01:09;17.71;78.11
71177;DHT22;58877;51.992;4.504;2022-08-21T03:03:41;17.74;78.01
71177;DHT22;58877;51.992;4.504;2022-08-21T03:06:09;17.73;77.89
71177;DHT22;58877;51.992;4.504;2022-08-21T03:08:38;17.71;77.98
71177;DHT22;58877;51.992;4.504;2022-08-21T03:11:05;17.69;77.97
71177;DHT22;58877;51.992;4.504;2022-08-21T03:13:31;17.71;78.08
71177;DHT22;58877;51.992;4.504;2022-08-21T03:16:00;17.67;78.11
71177;DHT22;58877;51.992;4.504;2022-08-21T03:18:26;17.69;78.26
71177;DHT22;58877;51.992;4.504;2022-08-21T03:20:51;17.64;78.28
71177;DHT22;58877;51.992;4.504;2022-08-21T03:23:21;17.67;78.25
71177;DHT22;58877;51.992;4.504;2022-08-21T03:25:48;17.70;78.14
71177;DHT22;58877;51.992;4.504;2022-08-21T03:28:18;17.70;77.99
71177;DHT22;58877;51.992;4.504;2022-08-21T03:30:47;17.67;78.00
71177;DHT22;58877;51.992;4.504;2022-08-21T03:33:14;17.64;78.16
71177;DHT22;58877;51.992;4.504;2022-08-21T03:35:40;17.66;78.19
71177;DHT22;58877;51.992;4.504;2022-08-21T03:38:06;17.64;78.12
71177;DHT22;58877;51.992;4.504;2022-08-21T03:40:32;17.59;78.39
71177;DHT22;58877;51.992;4.504;2022-08-21T03:42:58;17.59;78.58
71177;DHT22;58877;51.992;4.504;2022-08-21T03:45:25;17.50;78.63
71177;DHT22;58877;51.992;4.504;2022-08-21T03:48:02;17.47;78.78
71177;DHT22;58877;51.992;4.504;2022-08-21T03:50:32;17.47;78.83
71177;DHT22;58877;51.992;4.504;2022-08-21T03:52:58;17.49;78.79
71177;DHT22;58877;51.992;4.504;2022-08-21T03:55:25;17.47;78.83
71177;DHT22;58877;51.992;4.504;2022-08-21T03:57:51;17.47;78.88
71177;DHT22;58877;51.992;4.504;2022-08-21T04:00:19;17.47;78.88
71177;DHT22;58877;51.992;4.504;2022-08-21T04:02:45;17.50;79.00
71177;DHT22;58877;51.992;4.504;2022-08-21T04:05:13;17.47;78.91
71177;DHT22;58877;51.992;4.504;2022-08-21T04:07:39;17.42;79.10
71177;DHT22;58877;51.992;4.504;2022-08-21T04:10:06;17.40;79.22
71177;DHT22;58877;51.992;4.504;2022-08-21T04:12:32;17.42;79.30
71177;DHT22;58877;51.992;4.504;2022-08-21T04:14:58;17.40;79.23
71177;DHT22;58877;51.992;4.504;2022-08-21T04:17:24;17.36;79.49
71177;DHT22;58877;51.992;4.504;2022-08-21T04:19:49;17.32;79.68
71177;DHT22;58877;51.992;4.504;2022-08-21T04:22:16;17.33;79.72
71177;DHT22;58877;51.992;4.504;2022-08-21T04:24:42;17.34;79.66
71177;DHT22;58877;51.992;4.504;2022-08-21T04:27:07;17.29;79.60
71177;DHT22;58877;51.992;4.504;2022-08-21T04:29:33;17.26;79.84
71177;DHT22;58877;51.992;4.504;2022-08-21T04:31:58;17.30;80.15
71177;DHT22;58877;51.992;4.504;2022-08-21T04:34:31;17.30;80.30
71177;DHT22;58877;51.992;4.504;2022-08-21T04:36:57;17.30;80.28
71177;DHT22;58877;51.992;4.504;2022-08-21T04:39:23;17.33;80.38
71177;DHT22;58877;51.992;4.504;2022-08-21T04:41:51;17.42;80.44
71177;DHT22;58877;51.992;4.504;2022-08-21T04:44:18;17.42;80.47
71177;DHT22;58877;51.992;4.504;2022-08-21T04:46:43;17.42;80.56
71177;DHT22;58877;51.992;4.504;2022-08-21T04:49:09;17.47;80.44
71177;DHT22;58877;51.992;4.504;2022-08-21T04:51:39;17.53;80.29
71177;DHT22;58877;51.992;4.504;2022-08-21T04:54:20;17.51;80.37
71177;DHT22;58877;51.992;4.504;2022-08-21T04:56:54;17.53;80.27
71177;DHT22;58877;51.992;4.504;2022-08-21T04:59:28;17.49;80.45
71177;DHT22;58877;51.992;4.504;2022-08-21T05:01:59;17.51;80.61
71177;DHT22;58877;51.992;4.504;2022-08-21T05:04:30;17.55;80.49
71177;DHT22;58877;51.992;4.504;2022-08-21T05:07:04;17.63;80.47
71177;DHT22;58877;51.992;4.504;2022-08-21T05:09:32;17.67;80.31
71177;DHT22;58877;51.992;4.504;2022-08-21T05:12:01;17.71;80.29
71177;DHT22;58877;51.992;4.504;2022-08-21T05:14:27;17.62;80.38
71177;DHT22;58877;51.992;4.504;2022-08-21T05:16:53;17.67;80.40
71177;DHT22;58877;51.992;4.504;2022-08-21T05:19:21;17.66;80.44
71177;DHT22;58877;51.992;4.504;2022-08-21T05:21:47;17.70;80.53
71177;DHT22;58877;51.992;4.504;2022-08-21T05:24:23;17.73;80.38
71177;DHT22;58877;51.992;4.504;2022-08-21T05:26:49;17.78;80.35
71177;DHT22;58877;51.992;4.504;2022-08-21T05:29:15;17.84;80.27
71177;DHT22;58877;51.992;4.504;2022-08-21T05:31:41;17.91;80.14
71177;DHT22;58877;51.992;4.504;2022-08-21T05:34:07;17.91;80.20
71177;DHT22;58877;51.992;4.504;2022-08-21T05:36:33;17.97;79.75
71177;DHT22;58877;51.992;4.504;2022-08-21T05:38:58;18.01;79.82
71177;DHT22;58877;51.992;4.504;2022-08-21T05:41:24;18.02;79.86
71177;DHT22;58877;51.992;4.504;2022-08-21T05:43:54;18.08;79.77
71177;DHT22;58877;51.992;4.504;2022-08-21T05:46:20;18.11;79.94
71177;DHT22;58877;51.992;4.504;2022-08-21T05:48:48;18.14;79.97
71177;DHT22;58877;51.992;4.504;2022-08-21T05:51:15;18.25;79.75
71177;DHT22;58877;51.992;4.504;2022-08-21T05:53:42;18.34;79.50
71177;DHT22;58877;51.992;4.504;2022-08-21T05:56:14;18.29;79.26
71177;DHT22;58877;51.992;4.504;2022-08-21T05:58:41;18.31;79.49
71177;DHT22;58877;51.992;4.504;2022-08-21T06:01:10;18.39;79.42
71177;DHT22;58877;51.992;4.504;2022-08-21T06:03:41;18.49;79.09
71177;DHT22;58877;51.992;4.504;2022-08-21T06:06:07;18.59;79.03
71177;DHT22;58877;51.992;4.504;2022-08-21T06:08:34;18.62;78.72
71177;DHT22;58877;51.992;4.504;2022-08-21T06:11:01;18.72;78.53
71177;DHT22;58877;51.992;4.504;2022-08-21T06:13:30;18.82;77.97
71177;DHT22;58877;51.992;4.504;2022-08-21T06:16:12;18.85;77.65
71177;DHT22;58877;51.992;4.504;2022-08-21T06:18:38;18.86;77.65
71177;DHT22;58877;51.992;4.504;2022-08-21T06:21:06;18.80;77.89
71177;DHT22;58877;51.992;4.504;2022-08-21T06:23:33;18.85;78.20
71177;DHT22;58877;51.992;4.504;2022-08-21T06:26:00;18.77;78.09
71177;DHT22;58877;51.992;4.504;2022-08-21T06:28:27;18.85;78.45
71177;DHT22;58877;51.992;4.504;2022-08-21T06:30:52;18.92;78.45
71177;DHT22;58877;51.992;4.504;2022-08-21T06:33:18;18.99;78.46
71177;DHT22;58877;51.992;4.504;2022-08-21T06:35:44;19.06;78.25
71177;DHT22;58877;51.992;4.504;2022-08-21T06:38:15;19.26;77.73
71177;DHT22;58877;51.992;4.504;2022-08-21T06:40:41;19.35;77.06
71177;DHT22;58877;51.992;4.504;2022-08-21T06:43:12;19.37;77.43
71177;DHT22;58877;51.992;4.504;2022-08-21T06:45:41;19.46;77.42
71177;DHT22;58877;51.992;4.504;2022-08-21T06:48:07;19.57;76.86
71177;DHT22;58877;51.992;4.504;2022-08-21T06:50:33;19.68;76.53
71177;DHT22;58877;51.992;4.504;2022-08-21T06:53:05;19.77;76.29
71177;DHT22;58877;51.992;4.504;2022-08-21T06:55:32;19.84;76.29
71177;DHT22;58877;51.992;4.504;2022-08-21T06:57:58;19.94;75.69
71177;DHT22;58877;51.992;4.504;2022-08-21T07:00:24;20.01;75.71
71177;DHT22;58877;51.992;4.504;2022-08-21T07:02:49;20.17;75.53
71177;DHT22;58877;51.992;4.504;2022-08-21T07:05:16;20.22;74.93
71177;DHT22;58877;51.992;4.504;2022-08-21T07:07:42;20.09;75.68
71177;DHT22;58877;51.992;4.504;2022-08-21T07:10:11;20.14;75.65
71177;DHT22;58877;51.992;4.504;2022-08-21T07:12:38;20.22;75.22
71177;DHT22;58877;51.992;4.504;2022-08-21T07:15:04;20.22;75.13
71177;DHT22;58877;51.992;4.504;2022-08-21T07:17:30;20.24;75.30
71177;DHT22;58877;51.992;4.504;2022-08-21T07:19:55;20.46;75.42
71177;DHT22;58877;51.992;4.504;2022-08-21T07:22:22;20.69;74.49
71177;DHT22;58877;51.992;4.504;2022-08-21T07:24:48;20.80;73.45
71177;DHT22;58877;51.992;4.504;2022-08-21T07:27:13;20.93;73.55
71177;DHT22;58877;51.992;4.504;2022-08-21T07:29:39;21.31;73.19
71177;DHT22;58877;51.992;4.504;2022-08-21T07:32:05;21.50;71.91
71177;DHT22;58877;51.992;4.504;2022-08-21T07:34:31;21.51;71.47
71177;DHT22;58877;51.992;4.504;2022-08-21T07:36:57;21.68;70.80
71177;DHT22;58877;51.992;4.504;2022-08-21T07:39:24;21.64;70.82
71177;DHT22;58877;51.992;4.504;2022-08-21T07:41:49;21.67;71.00
71177;DHT22;58877;51.992;4.504;2022-08-21T07:44:15;21.51;71.86
71177;DHT22;58877;51.992;4.504;2022-08-21T07:46:41;21.67;71.40
71177;DHT22;58877;51.992;4.504;2022-08-21T07:49:06;21.75;71.51
71177;DHT22;58877;51.992;4.504;2022-08-21T07:51:32;22.04;70.64
71177;DHT22;58877;51.992;4.504;2022-08-21T07:53:59;22.25;69.25
71177;DHT22;58877;51.992;4.504;2022-08-21T07:56:27;22.33;68.85
71177;DHT22;58877;51.992;4.504;2022-08-21T07:58:53;22.48;69.01
71177;DHT22;58877;51.992;4.504;2022-08-21T08:01:20;22.66;67.88
71177;DHT22;58877;51.992;4.504;2022-08-21T08:03:45;22.82;67.79
71177;DHT22;58877;51.992;4.504;2022-08-21T08:06:11;22.79;67.32
71177;DHT22;58877;51.992;4.504;2022-08-21T08:08:38;22.84;66.61
71177;DHT22;58877;51.992;4.504;2022-08-21T08:11:06;22.93;66.83
71177;DHT22;58877;51.992;4.504;2022-08-21T08:13:47;23.10;66.31
71177;DHT22;58877;51.992;4.504;2022-08-21T08:16:13;23.11;65.82
71177;DHT22;58877;51.992;4.504;2022-08-21T08:18:45;22.80;65.81
71177;DHT22;58877;51.992;4.504;2022-08-21T08:21:15;22.48;67.55
71177;DHT22;58877;51.992;4.504;2022-08-21T08:23:43;22.38;67.76
71177;DHT22;58877;51.992;4.504;2022-08-21T08:26:14;22.22;68.07
71177;DHT22;58877;51.992;4.504;2022-08-21T08:28:43;22.01;68.53
71177;DHT22;58877;51.992;4.504;2022-08-21T08:31:09;22.13;68.37
71177;DHT22;58877;51.992;4.504;2022-08-21T08:33:35;22.29;67.66
71177;DHT22;58877;51.992;4.504;2022-08-21T08:36:01;22.55;67.07
71177;DHT22;58877;51.992;4.504;2022-08-21T08:38:27;22.59;67.19
71177;DHT22;58877;51.992;4.504;2022-08-21T08:43:40;22.92;65.62
71177;DHT22;58877;51.992;4.504;2022-08-21T08:46:14;23.24;64.76
71177;DHT22;58877;51.992;4.504;2022-08-21T08:48:58;23.47;63.74
71177;DHT22;58877;51.992;4.504;2022-08-21T08:54:10;23.48;63.05
71177;DHT22;58877;51.992;4.504;2022-08-21T08:56:47;23.54;63.16
71177;DHT22;58877;51.992;4.504;2022-08-21T08:59:24;23.89;61.62
71177;DHT22;58877;51.992;4.504;2022-08-21T09:01:52;24.36;59.44
71177;DHT22;58877;51.992;4.504;2022-08-21T09:04:26;24.83;58.40
71177;DHT22;58877;51.992;4.504;2022-08-21T09:10:29;24.05;59.47
71177;DHT22;58877;51.992;4.504;2022-08-21T09:13:21;24.55;58.54
71177;DHT22;58877;51.992;4.504;2022-08-21T09:18:52;25.35;56.37
71177;DHT22;58877;51.992;4.504;2022-08-21T09:21:49;25.37;55.45
71177;DHT22;58877;51.992;4.504;2022-08-21T09:27:22;25.04;57.34
71177;DHT22;58877;51.992;4.504;2022-08-21T09:29:54;25.10;56.16
71177;DHT22;58877;51.992;4.504;2022-08-21T09:32:30;25.35;55.60
71177;DHT22;58877;51.992;4.504;2022-08-21T09:37:32;23.85;59.52
71177;DHT22;58877;51.992;4.504;2022-08-21T09:40:15;23.44;61.28
71177;DHT22;58877;51.992;4.504;2022-08-21T09:42:41;23.17;62.64
71177;DHT22;58877;51.992;4.504;2022-08-21T09:45:12;23.00;62.94
71177;DHT22;58877;51.992;4.504;2022-08-21T09:47:40;22.89;62.86
71177;DHT22;58877;51.992;4.504;2022-08-21T09:50:16;23.18;60.29
71177;DHT22;58877;51.992;4.504;2022-08-21T09:52:49;23.02;61.63
71177;DHT22;58877;51.992;4.504;2022-08-21T09:55:49;22.59;63.85
71177;DHT22;58877;51.992;4.504;2022-08-21T09:58:36;22.22;64.49
71177;DHT22;58877;51.992;4.504;2022-08-21T10:01:05;21.78;66.83
71177;DHT22;58877;51.992;4.504;2022-08-21T10:03:32;21.99;65.47
71177;DHT22;58877;51.992;4.504;2022-08-21T10:06:01;21.85;66.66
71177;DHT22;58877;51.992;4.504;2022-08-21T10:08:36;22.19;64.17
71177;DHT22;58877;51.992;4.504;2022-08-21T10:11:06;22.09;64.58
71177;DHT22;58877;51.992;4.504;2022-08-21T10:25:21;23.33;61.47
71177;DHT22;58877;51.992;4.504;2022-08-21T10:28:13;23.57;61.17
71177;DHT22;58877;51.992;4.504;2022-08-21T10:31:07;23.50;59.16
71177;DHT22;58877;51.992;4.504;2022-08-21T10:36:34;23.68;57.34
71177;DHT22;58877;51.992;4.504;2022-08-21T10:39:24;23.53;58.20
71177;DHT22;58877;51.992;4.504;2022-08-21T10:55:18;23.08;58.54
71177;DHT22;58877;51.992;4.504;2022-08-21T10:57:59;22.69;59.71
71177;DHT22;58877;51.992;4.504;2022-08-21T11:00:38;22.96;59.50
71177;DHT22;58877;51.992;4.504;2022-08-21T11:03:25;23.24;58.22
71177;DHT22;58877;51.992;4.504;2022-08-21T11:06:16;23.23;58.62
71177;DHT22;58877;51.992;4.504;2022-08-21T11:08:50;22.87;58.33
71177;DHT22;58877;51.992;4.504;2022-08-21T11:11:26;22.89;59.02
71177;DHT22;58877;51.992;4.504;2022-08-21T11:14:29;23.31;57.18
71177;DHT22;58877;51.992;4.504;2022-08-21T11:17:08;23.50;56.21
71177;DHT22;58877;51.992;4.504;2022-08-21T11:19:54;23.71;56.31
71177;DHT22;58877;51.992;4.504;2022-08-21T11:23:02;23.89;54.93
71177;DHT22;58877;51.992;4.504;2022-08-21T11:25:36;23.43;55.85
71177;DHT22;58877;51.992;4.504;2022-08-21T11:28:16;23.13;56.26
71177;DHT22;58877;51.992;4.504;2022-08-21T11:39:44;22.23;58.40
71177;DHT22;58877;51.992;4.504;2022-08-21T11:47:53;23.27;54.73
71177;DHT22;58877;51.992;4.504;2022-08-21T11:50:28;23.41;55.20
71177;DHT22;58877;51.992;4.504;2022-08-21T11:53:04;23.23;53.34
71177;DHT22;58877;51.992;4.504;2022-08-21T11:55:51;23.24;53.10
71177;DHT22;58877;51.992;4.504;2022-08-21T11:59:04;23.17;53.77
71177;DHT22;58877;51.992;4.504;2022-08-21T12:01:39;22.90;53.84
71177;DHT22;58877;51.992;4.504;2022-08-21T12:04:17;23.34;52.18
71177;DHT22;58877;51.992;4.504;2022-08-21T12:06:44;23.88;50.62
71177;DHT22;58877;51.992;4.504;2022-08-21T12:12:07;23.69;52.23
71177;DHT22;58877;51.992;4.504;2022-08-21T12:14:45;23.41;52.39
71177;DHT22;58877;51.992;4.504;2022-08-21T12:17:24;23.78;52.55
71177;DHT22;58877;51.992;4.504;2022-08-21T12:20:39;23.59;52.59
71177;DHT22;58877;51.992;4.504;2022-08-21T12:26:20;24.15;51.83
71177;DHT22;58877;51.992;4.504;2022-08-21T12:28:50;24.51;50.28
71177;DHT22;58877;51.992;4.504;2022-08-21T12:31:18;23.57;51.58
71177;DHT22;58877;51.992;4.504;2022-08-21T12:34:01;23.38;52.36
71177;DHT22;58877;51.992;4.504;2022-08-21T12:36:42;23.85;51.53
71177;DHT22;58877;51.992;4.504;2022-08-21T12:39:17;23.74;52.40
71177;DHT22;58877;51.992;4.504;2022-08-21T12:42:07;24.09;51.40
71177;DHT22;58877;51.992;4.504;2022-08-21T12:44:58;23.91;51.68
71177;DHT22;58877;51.992;4.504;2022-08-21T12:47:45;23.88;53.16
71177;DHT22;58877;51.992;4.504;2022-08-21T12:50:23;24.26;52.08
71177;DHT22;58877;51.992;4.504;2022-08-21T12:53:08;23.59;52.39
71177;DHT22;58877;51.992;4.504;2022-08-21T12:58:54;22.83;53.91
71177;DHT22;58877;51.992;4.504;2022-08-21T13:02:10;23.48;53.32
71177;DHT22;58877;51.992;4.504;2022-08-21T13:04:55;23.53;53.20
71177;DHT22;58877;51.992;4.504;2022-08-21T13:07:32;23.50;52.91
71177;DHT22;58877;51.992;4.504;2022-08-21T13:10:06;23.14;52.86
71177;DHT22;58877;51.992;4.504;2022-08-21T13:12:41;22.97;54.32
71177;DHT22;58877;51.992;4.504;2022-08-21T13:15:22;23.54;52.43
71177;DHT22;58877;51.992;4.504;2022-08-21T13:17:50;23.71;51.54
71177;DHT22;58877;51.992;4.504;2022-08-21T13:20:32;23.69;52.81
71177;DHT22;58877;51.992;4.504;2022-08-21T13:23:26;23.77;52.67
71177;DHT22;58877;51.992;4.504;2022-08-21T13:25:54;23.46;52.53
71177;DHT22;58877;51.992;4.504;2022-08-21T13:28:21;23.58;51.21
71177;DHT22;58877;51.992;4.504;2022-08-21T13:30:53;23.62;51.59
71177;DHT22;58877;51.992;4.504;2022-08-21T13:33:25;24.59;50.11
71177;DHT22;58877;51.992;4.504;2022-08-21T13:36:05;24.42;50.09
71177;DHT22;58877;51.992;4.504;2022-08-21T13:38:39;24.18;50.85
71177;DHT22;58877;51.992;4.504;2022-08-21T13:41:26;23.64;51.76
71177;DHT22;58877;51.992;4.504;2022-08-21T13:44:02;23.47;50.15
71177;DHT22;58877;51.992;4.504;2022-08-21T13:46:32;23.11;50.66
71177;DHT22;58877;51.992;4.504;2022-08-21T13:49:00;23.46;50.36
71177;DHT22;58877;51.992;4.504;2022-08-21T13:51:30;23.37;50.03
71177;DHT22;58877;51.992;4.504;2022-08-21T13:53:59;23.23;49.90
71177;DHT22;58877;51.992;4.504;2022-08-21T13:56:33;23.50;50.13
71177;DHT22;58877;51.992;4.504;2022-08-21T13:59:06;24.02;49.10
71177;DHT22;58877;51.992;4.504;2022-08-21T14:01:58;24.37;47.02
71177;DHT22;58877;51.992;4.504;2022-08-21T14:04:35;24.16;47.17
71177;DHT22;58877;51.992;4.504;2022-08-21T14:07:03;23.55;48.57
71177;DHT22;58877;51.992;4.504;2022-08-21T14:09:47;23.55;51.88
71177;DHT22;58877;51.992;4.504;2022-08-21T14:12:29;23.50;52.76
71177;DHT22;58877;51.992;4.504;2022-08-21T14:14:57;23.27;52.34
71177;DHT22;58877;51.992;4.504;2022-08-21T14:17:33;23.36;53.53
71177;DHT22;58877;51.992;4.504;2022-08-21T14:19:59;23.33;52.39
71177;DHT22;58877;51.992;4.504;2022-08-21T14:22:37;23.17;53.10
71177;DHT22;58877;51.992;4.504;2022-08-21T14:32:56;22.94;55.88
71177;DHT22;58877;51.992;4.504;2022-08-21T14:35:25;23.04;56.19
71177;DHT22;58877;51.992;4.504;2022-08-21T14:37:59;22.66;58.34
71177;DHT22;58877;51.992;4.504;2022-08-21T14:40:26;22.73;58.43
71177;DHT22;58877;51.992;4.504;2022-08-21T14:42:53;22.52;59.30
71177;DHT22;58877;51.992;4.504;2022-08-21T14:45:30;22.69;59.73
71177;DHT22;58877;51.992;4.504;2022-08-21T14:47:58;22.38;60.52
71177;DHT22;58877;51.992;4.504;2022-08-21T14:50:29;22.11;61.96
71177;DHT22;58877;51.992;4.504;2022-08-21T14:53:01;22.11;61.89
71177;DHT22;58877;51.992;4.504;2022-08-21T14:55:32;21.99;62.44
71177;DHT22;58877;51.992;4.504;2022-08-21T14:58:22;22.08;61.44
71177;DHT22;58877;51.992;4.504;2022-08-21T15:00:54;22.06;61.25
71177;DHT22;58877;51.992;4.504;2022-08-21T15:03:21;22.36;61.22
71177;DHT22;58877;51.992;4.504;2022-08-21T15:05:52;22.72;59.81
71177;DHT22;58877;51.992;4.504;2022-08-21T15:08:28;23.02;59.23
71177;DHT22;58877;51.992;4.504;2022-08-21T15:11:09;23.58;57.54
71177;DHT22;58877;51.992;4.504;2022-08-21T15:13:58;24.43;55.16
71177;DHT22;58877;51.992;4.504;2022-08-21T15:16:30;23.91;55.79
71177;DHT22;58877;51.992;4.504;2022-08-21T15:18:57;23.44;56.49
71177;DHT22;58877;51.992;4.504;2022-08-21T15:21:25;23.53;57.57
71177;DHT22;58877;51.992;4.504;2022-08-21T15:23:55;24.21;55.89
71177;DHT22;58877;51.992;4.504;2022-08-21T15:26:23;24.40;54.54
71177;DHT22;58877;51.992;4.504;2022-08-21T15:28:52;24.67;54.33
71177;DHT22;58877;51.992;4.504;2022-08-21T15:31:19;25.14;52.43
71177;DHT22;58877;51.992;4.504;2022-08-21T15:33:44;24.66;53.78
71177;DHT22;58877;51.992;4.504;2022-08-21T15:36:16;23.81;55.83
71177;DHT22;58877;51.992;4.504;2022-08-21T15:38:42;23.34;57.39
71177;DHT22;58877;51.992;4.504;2022-08-21T15:41:09;23.20;57.15
71177;DHT22;58877;51.992;4.504;2022-08-21T15:43:50;23.62;55.82
71177;DHT22;58877;51.992;4.504;2022-08-21T15:46:21;24.12;55.22
71177;DHT22;58877;51.992;4.504;2022-08-21T15:48:49;23.84;54.81
71177;DHT22;58877;51.992;4.504;2022-08-21T15:51:18;23.75;55.35
71177;DHT22;58877;51.992;4.504;2022-08-21T15:53:44;23.38;56.26
71177;DHT22;58877;51.992;4.504;2022-08-21T15:56:24;23.41;56.26
71177;DHT22;58877;51.992;4.504;2022-08-21T15:58:53;23.57;57.69
71177;DHT22;58877;51.992;4.504;2022-08-21T16:01:24;23.81;55.07
71177;DHT22;58877;51.992;4.504;2022-08-21T16:03:55;23.55;56.07
71177;DHT22;58877;51.992;4.504;2022-08-21T16:06:28;23.59;56.15
71177;DHT22;58877;51.992;4.504;2022-08-21T16:08:54;23.41;56.88
71177;DHT22;58877;51.992;4.504;2022-08-21T16:11:21;23.24;56.93
71177;DHT22;58877;51.992;4.504;2022-08-21T16:13:48;23.03;57.39
71177;DHT22;58877;51.992;4.504;2022-08-21T16:16:18;23.24;56.10
71177;DHT22;58877;51.992;4.504;2022-08-21T16:18:55;22.87;54.69
71177;DHT22;58877;51.992;4.504;2022-08-21T16:21:27;22.79;56.57
71177;DHT22;58877;51.992;4.504;2022-08-21T16:23:52;22.70;57.64
71177;DHT22;58877;51.992;4.504;2022-08-21T16:26:18;22.56;58.69
71177;DHT22;58877;51.992;4.504;2022-08-21T16:28:45;22.57;58.63
71177;DHT22;58877;51.992;4.504;2022-08-21T16:31:13;22.64;58.62
71177;DHT22;58877;51.992;4.504;2022-08-21T16:33:43;22.52;58.42
71177;DHT22;58877;51.992;4.504;2022-08-21T16:36:10;22.59;58.56
71177;DHT22;58877;51.992;4.504;2022-08-21T16:38:37;22.49;58.76
71177;DHT22;58877;51.992;4.504;2022-08-21T16:41:10;22.64;59.74
71177;DHT22;58877;51.992;4.504;2022-08-21T16:43:39;22.67;58.93
71177;DHT22;58877;51.992;4.504;2022-08-21T16:46:08;22.80;57.96
71177;DHT22;58877;51.992;4.504;2022-08-21T16:48:35;22.82;58.59
71177;DHT22;58877;51.992;4.504;2022-08-21T16:51:00;22.92;57.03
71177;DHT22;58877;51.992;4.504;2022-08-21T16:53:26;22.99;57.22
71177;DHT22;58877;51.992;4.504;2022-08-21T16:55:52;23.04;56.55
71177;DHT22;58877;51.992;4.504;2022-08-21T16:58:24;22.74;58.31
71177;DHT22;58877;51.992;4.504;2022-08-21T17:00:50;22.64;58.87
71177;DHT22;58877;51.992;4.504;2022-08-21T17:03:19;22.66;59.11
71177;DHT22;58877;51.992;4.504;2022-08-21T17:05:46;22.79;58.94
71177;DHT22;58877;51.992;4.504;2022-08-21T17:08:12;22.87;57.52
71177;DHT22;58877;51.992;4.504;2022-08-21T17:10:44;22.84;57.95